Time;durP1;ratioP1;P1;durP2;ratioP2;P2;SDS_P1;SDS_P2;PMS_P1;PMS_P2;Temp;Humidity;BMP_temperature;BMP_pressure;BME280_temperature;BME280_humidity;BME280_pressure;Samples;Min_cycle;Max_cycle;Signal;HPM_P1;HPM_P2
2022/08/27 00:00:17;;;;;;;6.03;2.03;;;15.20;99.90;;;;;;4983189;28;20565;-79
2022/08/27 00:02:43;;;;;;;6.28;1.70;;;15.20;99.90;;;;;;4979560;28;20051;-80
2022/08/27 00:05:10;;;;;;;6.20;1.77;;;15.10;99.90;;;;;;4981818;28;20456;-80
2022/08/27 00:07:36;;;;;;;6.50;1.90;;;15.10;99.90;;;;;;4979942;28;20047;-79
2022/08/27 00:10:04;;;;;;;4.45;2.15;;;15.10;99.90;;;;;;4977693;28;20565;-77
2022/08/27 00:12:29;;;;;;;7.57;2.53;;;15.10;99.90;;;;;;4982153;28;20039;-80
2022/08/27 00:14:55;;;;;;;6.55;2.40;;;15.00;99.90;;;;;;4982301;28;20467;-80
2022/08/27 00:17:21;;;;;;;4.80;2.17;;;15.00;99.90;;;;;;4978989;28;20821;-80
2022/08/27 00:19:46;;;;;;;7.10;2.13;;;14.90;99.90;;;;;;5007698;28;20050;-80
2022/08/27 00:22:12;;;;;;;4.65;2.05;;;15.00;99.90;;;;;;4988150;28;20070;-79
2022/08/27 00:24:38;;;;;;;4.32;1.98;;;15.00;99.90;;;;;;4987266;28;20044;-78
2022/08/27 00:27:03;;;;;;;6.18;2.42;;;15.00;99.90;;;;;;4986188;28;20189;-78
2022/08/27 00:29:29;;;;;;;6.72;2.40;;;14.90;99.90;;;;;;4984218;28;20042;-80
2022/08/27 00:31:55;;;;;;;7.07;2.00;;;14.90;99.90;;;;;;4983168;28;20057;-79
2022/08/27 00:34:21;;;;;;;5.53;2.10;;;15.00;99.90;;;;;;4996325;28;20050;-80
2022/08/27 00:36:47;;;;;;;4.95;2.40;;;15.00;99.90;;;;;;4983561;28;20055;-79
2022/08/27 00:39:13;;;;;;;11.35;2.33;;;14.90;99.90;;;;;;4985807;28;20065;-79
2022/08/27 00:41:40;;;;;;;6.20;2.30;;;14.90;99.90;;;;;;5011265;28;20031;-80
2022/08/27 00:44:06;;;;;;;5.15;2.22;;;15.00;99.90;;;;;;4984248;28;20057;-78
2022/08/27 00:46:40;;;;;;;6.63;2.30;;;14.90;99.90;;;;;;5004018;28;20046;-79
2022/08/27 00:49:33;;;;;;;5.68;2.25;;;15.00;99.90;;;;;;4983970;28;20046;-79
2022/08/27 00:52:06;;;;;;;6.22;2.10;;;15.00;99.90;;;;;;5012294;28;20129;-78
2022/08/27 00:54:32;;;;;;;4.45;2.10;;;15.00;99.90;;;;;;4987480;28;20046;-79
2022/08/27 00:56:59;;;;;;;8.57;3.25;;;15.10;99.90;;;;;;5003285;28;20193;-78
2022/08/27 00:59:29;;;;;;;7.75;2.38;;;15.10;99.90;;;;;;4982476;28;21915;-80
2022/08/27 01:04:42;;;;;;;10.40;2.72;;;15.20;99.90;;;;;;4985789;28;20135;-78
2022/08/27 01:07:09;;;;;;;5.30;2.58;;;15.10;99.90;;;;;;5012474;28;20046;-80
2022/08/27 01:09:35;;;;;;;9.40;2.75;;;15.20;99.90;;;;;;4982059;28;20065;-78
2022/08/27 01:12:01;;;;;;;6.13;2.50;;;15.10;99.90;;;;;;4982008;28;20093;-78
2022/08/27 01:14:27;;;;;;;4.35;2.33;;;15.20;99.90;;;;;;4985784;28;20153;-79
2022/08/27 01:16:56;;;;;;;5.57;2.90;;;15.20;99.90;;;;;;4986024;28;20039;-78
2022/08/27 01:19:47;;;;;;;2.28;1.95;;;15.10;99.90;;;;;;4984864;28;20129;-81
2022/08/27 01:22:41;;;;;;;7.30;2.92;;;15.00;99.90;;;;;;4984841;28;20058;-79
2022/08/27 01:25:10;;;;;;;7.03;2.97;;;15.10;99.90;;;;;;5012839;28;20042;-78
2022/08/27 01:27:37;;;;;;;7.00;2.95;;;15.00;99.90;;;;;;4978915;28;20064;-77
2022/08/27 01:30:04;;;;;;;5.80;2.40;;;15.00;99.90;;;;;;4987658;28;20051;-80
2022/08/27 01:32:32;;;;;;;4.18;2.45;;;15.00;99.90;;;;;;4985265;28;20125;-79
2022/08/27 01:34:59;;;;;;;5.22;2.75;;;15.00;99.90;;;;;;4985073;28;20039;-80
2022/08/27 01:37:26;;;;;;;4.70;2.90;;;15.00;99.90;;;;;;4978375;28;20049;-80
2022/08/27 01:39:54;;;;;;;5.43;2.88;;;14.90;99.90;;;;;;4978270;28;20066;-80
2022/08/27 01:42:25;;;;;;;10.57;3.88;;;14.90;99.90;;;;;;4977975;28;20050;-78
2022/08/27 01:44:59;;;;;;;6.63;2.97;;;14.90;99.90;;;;;;4985485;28;20507;-81
2022/08/27 01:47:28;;;;;;;4.75;2.90;;;14.80;99.90;;;;;;4999407;28;20059;-78
2022/08/27 01:49:54;;;;;;;5.13;2.50;;;14.70;99.90;;;;;;5010742;28;20952;-80
2022/08/27 01:52:23;;;;;;;8.40;2.85;;;14.70;99.90;;;;;;5007142;28;20046;-78
2022/08/27 01:54:50;;;;;;;5.50;3.05;;;14.70;99.90;;;;;;5011268;28;20073;-80
2022/08/27 01:57:17;;;;;;;6.97;2.85;;;14.60;99.90;;;;;;4979150;28;20051;-80
2022/08/27 01:59:43;;;;;;;7.30;3.22;;;14.60;99.90;;;;;;4979709;28;20151;-78
2022/08/27 02:02:11;;;;;;;5.03;2.80;;;14.60;99.90;;;;;;4978284;28;20131;-77
2022/08/27 02:04:38;;;;;;;5.30;3.10;;;14.50;99.90;;;;;;4977752;28;20065;-80
2022/08/27 02:07:04;;;;;;;6.18;2.65;;;14.60;99.90;;;;;;5008913;28;20054;-80
2022/08/27 02:09:30;;;;;;;6.43;3.40;;;14.50;99.90;;;;;;4978892;28;20050;-80
2022/08/27 02:11:56;;;;;;;8.40;3.33;;;14.50;99.90;;;;;;5007589;28;20054;-80
2022/08/27 02:14:22;;;;;;;6.78;3.15;;;14.50;99.90;;;;;;4980875;28;20071;-81
2022/08/27 02:16:48;;;;;;;6.82;2.83;;;14.50;99.90;;;;;;5009937;28;20185;-80
2022/08/27 02:19:13;;;;;;;6.03;2.97;;;14.50;99.90;;;;;;4978425;28;20046;-80
2022/08/27 02:21:39;;;;;;;5.95;3.30;;;14.40;99.90;;;;;;4979302;28;20041;-78
2022/08/27 02:24:05;;;;;;;5.30;3.22;;;14.50;99.90;;;;;;4980833;28;20042;-80
2022/08/27 02:26:30;;;;;;;8.25;3.55;;;14.50;99.90;;;;;;4979711;28;20058;-80
2022/08/27 02:28:56;;;;;;;3.92;2.70;;;14.50;99.90;;;;;;4979299;28;20141;-80
2022/08/27 02:31:22;;;;;;;7.80;3.22;;;14.50;99.90;;;;;;4978123;28;20052;-78
2022/08/27 02:33:48;;;;;;;6.82;2.90;;;14.50;99.90;;;;;;4976700;28;20039;-80
2022/08/27 02:36:14;;;;;;;5.18;2.53;;;14.50;99.90;;;;;;4980497;28;20145;-79
2022/08/27 02:38:40;;;;;;;5.03;2.65;;;14.50;99.90;;;;;;4976010;28;20094;-78
2022/08/27 02:41:06;;;;;;;8.30;3.08;;;14.50;99.90;;;;;;4978237;28;20137;-79
2022/08/27 02:43:31;;;;;;;6.13;3.20;;;14.60;99.90;;;;;;4978675;28;20580;-81
2022/08/27 02:45:57;;;;;;;7.00;2.72;;;14.60;99.90;;;;;;4977267;28;20057;-80
2022/08/27 02:48:23;;;;;;;4.68;2.85;;;14.60;99.90;;;;;;5007945;28;20050;-80
2022/08/27 02:50:49;;;;;;;5.30;2.85;;;14.70;99.90;;;;;;5006932;28;20066;-80
2022/08/27 02:53:15;;;;;;;11.77;3.90;;;14.70;99.90;;;;;;4979556;28;20034;-78
2022/08/27 02:55:40;;;;;;;8.15;2.88;;;14.70;99.90;;;;;;4963704;28;20046;-78
2022/08/27 02:58:07;;;;;;;7.72;2.80;;;14.80;99.90;;;;;;5011005;28;20043;-78
2022/08/27 03:00:33;;;;;;;4.65;2.58;;;14.80;99.90;;;;;;4982387;28;20089;-80
2022/08/27 03:02:59;;;;;;;6.03;2.53;;;14.80;99.90;;;;;;4976537;28;20034;-80
2022/08/27 03:05:25;;;;;;;4.90;2.95;;;14.80;99.90;;;;;;4980738;28;20039;-80
2022/08/27 03:07:51;;;;;;;4.10;2.80;;;14.80;99.90;;;;;;4979315;28;20059;-79
2022/08/27 03:10:19;;;;;;;5.55;3.08;;;14.80;99.90;;;;;;4981588;28;20415;-81
2022/08/27 03:12:44;;;;;;;7.13;2.95;;;14.80;99.90;;;;;;4985866;28;20035;-80
2022/08/27 03:15:14;;;;;;;8.35;2.63;;;14.90;99.90;;;;;;5008508;28;20092;-77
2022/08/27 03:20:24;;;;;;;6.65;2.80;;;14.80;99.90;;;;;;4982768;28;20473;-78
2022/08/27 03:22:50;;;;;;;4.60;3.10;;;14.70;99.90;;;;;;4982222;28;20046;-80
2022/08/27 03:25:16;;;;;;;5.43;2.35;;;14.70;99.90;;;;;;5010821;28;20050;-80
2022/08/27 03:27:42;;;;;;;4.60;2.45;;;14.60;99.90;;;;;;4984790;28;20171;-79
2022/08/27 03:30:11;;;;;;;4.68;2.40;;;14.60;99.90;;;;;;4995875;28;20436;-77
2022/08/27 03:32:37;;;;;;;5.07;2.70;;;14.50;99.90;;;;;;4983086;28;20049;-77
2022/08/27 03:35:04;;;;;;;5.50;3.03;;;14.50;99.90;;;;;;4985343;28;20077;-80
2022/08/27 03:37:29;;;;;;;6.10;3.03;;;14.50;99.90;;;;;;4982006;28;20043;-80
2022/08/27 03:39:55;;;;;;;7.85;2.78;;;14.40;99.90;;;;;;5011310;28;20121;-79
2022/08/27 03:42:21;;;;;;;7.05;2.53;;;14.40;99.90;;;;;;4978596;28;20046;-77
2022/08/27 03:44:47;;;;;;;4.40;2.40;;;14.40;99.90;;;;;;5009305;28;20052;-80
2022/08/27 03:47:13;;;;;;;4.65;2.47;;;14.30;99.90;;;;;;4982552;28;20654;-79
2022/08/27 03:49:39;;;;;;;7.68;3.83;;;14.30;99.90;;;;;;4980781;28;20780;-78
2022/08/27 03:52:05;;;;;;;5.82;2.60;;;14.30;99.90;;;;;;5008266;28;20046;-79
2022/08/27 03:54:34;;;;;;;5.10;2.83;;;14.20;99.90;;;;;;5006908;28;20048;-79
2022/08/27 03:57:00;;;;;;;4.88;2.63;;;14.20;99.90;;;;;;4982331;28;20090;-80
2022/08/27 03:59:26;;;;;;;5.43;2.40;;;14.20;99.90;;;;;;4981335;28;20038;-80
2022/08/27 04:01:51;;;;;;;4.55;2.83;;;14.20;99.90;;;;;;4987656;28;20446;-80
2022/08/27 04:04:17;;;;;;;4.57;2.67;;;14.20;99.90;;;;;;4972706;28;20057;-79
2022/08/27 04:06:42;;;;;;;7.90;2.88;;;14.10;99.90;;;;;;5013182;28;20047;-79
2022/08/27 04:09:08;;;;;;;9.70;2.85;;;14.20;99.90;;;;;;5014210;28;20554;-78
2022/08/27 04:11:33;;;;;;;3.88;2.35;;;14.20;99.90;;;;;;5011945;28;20693;-77
2022/08/27 04:14:01;;;;;;;4.97;2.72;;;14.10;99.90;;;;;;4982352;28;20054;-79
2022/08/27 04:16:27;;;;;;;5.25;2.88;;;14.10;99.90;;;;;;4983326;28;20042;-77
2022/08/27 04:18:54;;;;;;;6.00;2.78;;;14.10;99.90;;;;;;4987704;28;20423;-80
2022/08/27 04:21:21;;;;;;;4.97;3.13;;;14.10;99.90;;;;;;4983725;28;20113;-79
2022/08/27 04:23:47;;;;;;;4.15;2.53;;;14.00;99.90;;;;;;4982806;28;20046;-80
2022/08/27 04:26:13;;;;;;;4.45;2.67;;;14.00;99.90;;;;;;5014030;28;20590;-80
2022/08/27 04:28:39;;;;;;;7.80;3.25;;;13.90;99.90;;;;;;5009858;28;20529;-79
2022/08/27 04:31:05;;;;;;;4.35;2.42;;;13.90;99.90;;;;;;4985944;28;20072;-80
2022/08/27 04:33:31;;;;;;;6.70;3.22;;;13.90;99.90;;;;;;5009788;28;20046;-79
2022/08/27 04:35:58;;;;;;;5.30;2.97;;;13.80;99.90;;;;;;4987063;28;20042;-80
2022/08/27 04:38:24;;;;;;;3.95;3.47;;;13.80;99.90;;;;;;5000708;28;20107;-79
2022/08/27 04:43:34;;;;;;;7.18;2.67;;;13.60;99.90;;;;;;4987843;28;20046;-80
2022/08/27 04:45:59;;;;;;;3.92;2.67;;;13.50;99.90;;;;;;4982922;28;20947;-79
2022/08/27 04:48:25;;;;;;;8.90;3.83;;;13.40;99.90;;;;;;5013430;28;20043;-80
2022/08/27 04:50:50;;;;;;;4.75;3.10;;;13.30;99.90;;;;;;4970375;28;20083;-80
2022/08/27 04:53:16;;;;;;;5.97;4.32;;;13.20;99.90;;;;;;4994232;28;20038;-80
2022/08/27 04:55:46;;;;;;;5.57;3.17;;;13.20;99.90;;;;;;4978566;28;20066;-78
2022/08/27 04:58:12;;;;;;;3.60;2.88;;;13.20;99.90;;;;;;4998598;28;20050;-80
2022/08/27 05:00:49;;;;;;;6.03;3.50;;;13.10;99.90;;;;;;4984905;28;20461;-77
2022/08/27 05:03:21;;;;;;;7.68;3.20;;;13.20;99.90;;;;;;5011511;28;20574;-80
2022/08/27 05:05:47;;;;;;;5.47;3.08;;;13.10;99.90;;;;;;5010439;28;20507;-79
2022/08/27 05:08:13;;;;;;;9.05;3.20;;;13.10;99.90;;;;;;4977805;28;20050;-79
2022/08/27 05:10:47;;;;;;;4.90;3.53;;;13.20;99.90;;;;;;4980506;28;20066;-78
2022/08/27 05:13:14;;;;;;;4.85;2.88;;;13.30;99.90;;;;;;4982840;28;20070;-80
2022/08/27 05:15:40;;;;;;;5.32;2.40;;;13.40;99.90;;;;;;4984495;28;20038;-77
2022/08/27 05:18:07;;;;;;;5.75;3.17;;;13.70;99.90;;;;;;4979792;28;20062;-79
2022/08/27 05:20:40;;;;;;;5.22;2.60;;;14.10;99.90;;;;;;5010443;28;20046;-78
2022/08/27 05:23:05;;;;;;;3.28;2.10;;;14.60;99.90;;;;;;4994307;28;20045;-79
2022/08/27 05:25:36;;;;;;;9.32;2.30;;;15.40;99.90;;;;;;4979747;28;20039;-80
2022/08/27 05:28:02;;;;;;;6.57;2.03;;;16.60;99.90;;;;;;4975138;28;20054;-81
2022/08/27 05:30:27;;;;;;;6.22;1.73;;;17.90;99.90;;;;;;4996041;28;20085;-80
2022/08/27 05:32:53;;;;;;;9.15;2.13;;;19.20;99.90;;;;;;4981110;28;20042;-80
2022/08/27 05:35:19;;;;;;;8.68;2.00;;;20.30;99.90;;;;;;4978054;28;20068;-80
2022/08/27 05:37:45;;;;;;;11.40;2.75;;;21.30;99.90;;;;;;4981494;28;20073;-79
2022/08/27 05:40:11;;;;;;;8.02;2.10;;;22.40;99.90;;;;;;4979842;28;20081;-81
2022/08/27 05:42:36;;;;;;;7.85;2.22;;;23.20;99.90;;;;;;5010500;28;20089;-81
2022/08/27 05:45:02;;;;;;;3.97;1.80;;;23.30;99.90;;;;;;4980680;28;20061;-78
2022/08/27 05:47:28;;;;;;;6.03;1.83;;;23.30;99.90;;;;;;4981130;28;20046;-81
2022/08/27 05:49:54;;;;;;;5.53;1.90;;;23.80;99.90;;;;;;4984058;28;20034;-80
2022/08/27 05:52:20;;;;;;;2.13;1.52;;;24.10;99.90;;;;;;5007441;28;20111;-78
2022/08/27 05:54:46;;;;;;;4.90;1.60;;;24.80;99.90;;;;;;5010986;28;20161;-81
2022/08/27 05:57:12;;;;;;;2.30;1.50;;;25.50;99.90;;;;;;4977731;28;20884;-80
2022/08/27 06:02:22;;;;;;;3.60;1.23;;;26.30;99.90;;;;;;5008271;28;20051;-79
2022/08/27 06:04:48;;;;;;;3.75;1.35;;;26.70;99.90;;;;;;4982442;28;20046;-81
2022/08/27 06:07:13;;;;;;;5.05;1.80;;;26.80;99.90;;;;;;4977831;28;20047;-79
2022/08/27 06:09:39;;;;;;;2.58;1.63;;;26.40;99.90;;;;;;4980064;28;20042;-78
2022/08/27 06:12:05;;;;;;;3.55;1.55;;;26.70;99.90;;;;;;4984620;28;20483;-81
2022/08/27 06:14:31;;;;;;;3.95;1.55;;;26.70;99.80;;;;;;4984808;28;20503;-81
2022/08/27 06:16:59;;;;;;;3.13;1.02;;;26.30;99.60;;;;;;4985216;28;20046;-80
2022/08/27 06:19:26;;;;;;;4.82;1.52;;;26.60;99.70;;;;;;5008520;28;20117;-78
2022/08/27 06:21:52;;;;;;;5.35;1.48;;;26.40;99.50;;;;;;5008674;28;20049;-80
2022/08/27 06:24:18;;;;;;;3.75;1.50;;;25.90;99.40;;;;;;4976000;28;20066;-80
2022/08/27 06:26:44;;;;;;;6.72;1.38;;;25.00;99.70;;;;;;4981713;28;20070;-79
2022/08/27 06:29:11;;;;;;;7.10;1.67;;;24.20;99.90;;;;;;4981335;28;20043;-79
2022/08/27 06:31:37;;;;;;;4.00;1.63;;;23.50;99.90;;;;;;4983530;28;20043;-79
2022/08/27 06:34:06;;;;;;;4.60;1.35;;;22.80;99.90;;;;;;4982669;28;20442;-80
2022/08/27 06:36:33;;;;;;;38.67;2.15;;;22.20;99.90;;;;;;4978387;28;20412;-81
2022/08/27 06:38:59;;;;;;;6.90;1.20;;;21.80;99.90;;;;;;5009077;28;20068;-81
2022/08/27 06:41:26;;;;;;;7.07;1.52;;;22.40;99.90;;;;;;5008154;28;20046;-81
2022/08/27 06:43:53;;;;;;;4.35;1.20;;;22.30;99.90;;;;;;4984341;28;20498;-81
2022/08/27 06:46:21;;;;;;;4.43;1.05;;;22.00;99.90;;;;;;5007799;28;20091;-78
2022/08/27 06:48:50;;;;;;;5.72;1.17;;;21.80;99.90;;;;;;4986161;28;20065;-79
2022/08/27 06:51:20;;;;;;;3.80;1.75;;;21.60;99.90;;;;;;5010229;28;20479;-80
2022/08/27 06:53:46;;;;;;;5.32;1.38;;;21.40;99.90;;;;;;5008061;28;20402;-80
2022/08/27 06:56:13;;;;;;;4.57;1.52;;;21.30;99.90;;;;;;4984238;28;20518;-81
2022/08/27 06:58:40;;;;;;;4.05;1.17;;;21.00;99.90;;;;;;4981520;28;20118;-78
2022/08/27 07:01:21;;;;;;;5.40;1.50;;;20.80;99.90;;;;;;4986168;28;20057;-80
2022/08/27 07:03:47;;;;;;;5.75;1.15;;;20.60;99.90;;;;;;4994550;28;20046;-81
2022/08/27 07:06:15;;;;;;;6.53;1.20;;;20.50;99.90;;;;;;4982641;28;20051;-80
2022/08/27 07:08:41;;;;;;;4.95;1.25;;;20.40;99.90;;;;;;4981605;28;20034;-79
2022/08/27 07:11:08;;;;;;;3.60;1.40;;;20.20;99.90;;;;;;4982015;28;20057;-80
2022/08/27 07:13:35;;;;;;;5.60;1.25;;;20.10;99.90;;;;;;4983300;28;20050;-80
2022/08/27 07:16:14;;;;;;;4.82;1.40;;;20.10;99.90;;;;;;4987045;28;20042;-81
2022/08/27 07:18:40;;;;;;;3.63;1.27;;;20.20;99.90;;;;;;5011195;28;20066;-78
2022/08/27 07:21:06;;;;;;;5.38;1.52;;;20.50;99.90;;;;;;4984577;28;20105;-81
2022/08/27 07:23:34;;;;;;;4.10;1.17;;;20.60;99.90;;;;;;4984142;28;20132;-81
2022/08/27 07:26:05;;;;;;;4.47;1.60;;;20.80;99.90;;;;;;4985776;28;20053;-80
2022/08/27 07:28:31;;;;;;;2.95;1.20;;;20.80;99.90;;;;;;4988774;28;20495;-80
2022/08/27 07:30:57;;;;;;;4.68;1.02;;;20.90;99.90;;;;;;4985392;28;20094;-80
2022/08/27 07:33:24;;;;;;;2.88;1.00;;;20.80;99.90;;;;;;4983515;28;21790;-80
2022/08/27 07:35:50;;;;;;;5.75;1.00;;;20.70;99.90;;;;;;4985739;28;20046;-81
2022/08/27 07:38:16;;;;;;;4.78;1.40;;;20.60;99.90;;;;;;4997810;28;20050;-81
2022/08/27 07:40:42;;;;;;;8.98;1.70;;;20.60;99.90;;;;;;4978901;28;20064;-81
2022/08/27 07:45:55;;;;;;;4.63;1.10;;;20.60;99.90;;;;;;4983184;28;20057;-81
2022/08/27 07:48:22;;;;;;;5.70;1.73;;;20.60;99.90;;;;;;4997429;28;20061;-81
2022/08/27 07:50:49;;;;;;;4.40;1.23;;;20.70;99.90;;;;;;5011173;28;20051;-81
2022/08/27 07:53:14;;;;;;;5.90;1.80;;;20.70;99.90;;;;;;4981957;28;20042;-81
2022/08/27 07:55:40;;;;;;;4.07;1.05;;;20.90;99.90;;;;;;4981410;28;20054;-79
2022/08/27 07:58:05;;;;;;;4.45;0.82;;;21.00;99.90;;;;;;5010170;28;20050;-80
2022/08/27 08:00:32;;;;;;;3.65;0.95;;;21.20;99.90;;;;;;4983929;28;20042;-81
2022/08/27 08:02:58;;;;;;;5.78;1.08;;;21.50;99.90;;;;;;4984006;28;20338;-81
2022/08/27 08:05:23;;;;;;;9.63;1.25;;;21.70;99.90;;;;;;5012179;28;20102;-81
2022/08/27 08:07:50;;;;;;;3.60;0.70;;;21.80;99.90;;;;;;4980878;28;20077;-81
2022/08/27 08:10:18;;;;;;;5.15;1.80;;;22.10;99.90;;;;;;4985813;28;20077;-80
2022/08/27 08:12:44;;;;;;;6.00;1.10;;;22.20;99.90;;;;;;4969635;28;20034;-79
2022/08/27 08:15:10;;;;;;;6.90;1.05;;;22.40;99.90;;;;;;4984996;28;20031;-79
2022/08/27 08:17:37;;;;;;;5.88;1.15;;;22.50;99.90;;;;;;5006652;28;20836;-81
2022/08/27 08:20:05;;;;;;;5.40;1.15;;;22.50;99.90;;;;;;4984304;28;20047;-82
2022/08/27 08:22:30;;;;;;;5.25;1.02;;;22.50;99.90;;;;;;4980288;28;20104;-82
2022/08/27 08:24:56;;;;;;;6.97;1.48;;;22.60;99.90;;;;;;4984104;28;20050;-82
2022/08/27 08:27:22;;;;;;;7.43;1.20;;;22.60;99.90;;;;;;5003234;28;20043;-80
2022/08/27 08:29:49;;;;;;;8.63;0.88;;;22.90;99.90;;;;;;4982070;28;20501;-82
2022/08/27 08:32:16;;;;;;;5.07;0.75;;;22.80;99.90;;;;;;4982918;28;20101;-80
2022/08/27 08:34:41;;;;;;;6.10;0.95;;;22.80;99.90;;;;;;4984342;28;20407;-80
2022/08/27 08:37:07;;;;;;;4.18;1.20;;;23.00;99.90;;;;;;5012721;28;20038;-80
2022/08/27 08:39:35;;;;;;;5.57;1.27;;;23.10;99.90;;;;;;4981756;28;20155;-82
2022/08/27 08:42:04;;;;;;;6.60;1.25;;;23.00;99.90;;;;;;5013008;28;20050;-82
2022/08/27 08:44:45;;;;;;;5.70;0.98;;;22.90;99.90;;;;;;4981300;28;20039;-81
2022/08/27 08:47:32;;;;;;;6.78;1.85;;;22.80;99.90;;;;;;4987037;28;20038;-79
2022/08/27 08:50:21;;;;;;;7.75;1.30;;;22.50;99.90;;;;;;5016023;28;20041;-81
2022/08/27 08:53:26;;;;;;;9.85;1.10;;;22.30;99.90;;;;;;4973013;28;20520;-81
2022/08/27 08:56:00;;;;;;;5.70;0.98;;;22.00;99.90;;;;;;4993683;28;20483;-82
2022/08/27 08:58:46;;;;;;;7.32;1.55;;;21.70;99.90;;;;;;4974142;28;20038;-81
2022/08/27 09:01:17;;;;;;;4.15;0.90;;;21.50;99.90;;;;;;4986219;28;20099;-80
2022/08/27 09:03:50;;;;;;;5.80;0.93;;;21.40;99.90;;;;;;4989665;28;20483;-80
2022/08/27 09:06:28;;;;;;;4.80;0.80;;;21.30;99.90;;;;;;4986862;28;20073;-81
2022/08/27 09:08:55;;;;;;;5.82;0.73;;;21.20;99.90;;;;;;4996652;28;20054;-81
2022/08/27 09:11:30;;;;;;;7.57;1.20;;;21.10;99.90;;;;;;4983980;28;20522;-80
2022/08/27 09:14:00;;;;;;;;;;;21.10;99.90;;;;;;4984230;28;20034;-82
2022/08/27 09:16:26;;;;;;;10.52;1.35;;;20.90;99.90;;;;;;4988463;28;19921;-82
2022/08/27 09:18:52;;;;;;;7.00;1.20;;;20.90;99.90;;;;;;4983266;28;20089;-81
2022/08/27 09:21:28;;;;;;;8.25;1.20;;;20.80;99.90;;;;;;4981745;28;20039;-82
2022/08/27 09:24:24;;;;;;;5.28;1.00;;;20.80;99.90;;;;;;4986370;28;20707;-79
2022/08/27 09:26:50;;;;;;;5.75;1.42;;;20.80;99.90;;;;;;5014829;28;20050;-82
2022/08/27 09:29:20;;;;;;;4.85;1.10;;;20.80;99.90;;;;;;5012220;28;20105;-82
2022/08/27 09:32:07;;;;;;;8.63;1.48;;;20.80;99.90;;;;;;4987218;28;20031;-79
2022/08/27 09:34:36;;;;;;;8.90;1.40;;;20.70;99.90;;;;;;4986051;28;20039;-78
2022/08/27 09:37:43;;;;;;;5.55;1.08;;;20.90;99.90;;;;;;4986953;28;20061;-80
2022/08/27 09:40:30;;;;;;;4.68;0.90;;;20.90;99.90;;;;;;4983412;28;20053;-81
2022/08/27 09:43:04;;;;;;;7.13;1.15;;;21.00;99.90;;;;;;4985339;28;20051;-81
2022/08/27 09:45:30;;;;;;;5.60;0.75;;;21.00;99.90;;;;;;4984336;28;20034;-82
2022/08/27 09:48:06;;;;;;;3.88;0.80;;;21.00;99.90;;;;;;4997863;28;20102;-82
2022/08/27 09:50:40;;;;;;;4.18;0.98;;;21.00;99.90;;;;;;4985086;28;20041;-81
2022/08/27 09:53:20;;;;;;;4.23;0.70;;;21.00;99.90;;;;;;5012252;28;20030;-82
2022/08/27 09:56:01;;;;;;;6.97;1.05;;;21.10;99.90;;;;;;4995852;28;20066;-82
2022/08/27 09:58:41;;;;;;;5.82;0.77;;;21.10;99.90;;;;;;4987652;28;20113;-82
2022/08/27 10:01:16;;;;;;;6.47;1.17;;;21.10;99.90;;;;;;5009781;28;20400;-80
2022/08/27 10:03:42;;;;;;;4.60;1.27;;;21.20;99.90;;;;;;4965894;28;20042;-82
2022/08/27 10:06:09;;;;;;;8.30;1.30;;;21.20;99.90;;;;;;5010361;28;20064;-82
2022/08/27 10:08:47;;;;;;;4.65;1.00;;;21.30;99.90;;;;;;4982108;28;20073;-81
2022/08/27 10:11:20;;;;;;;4.93;0.98;;;21.30;99.90;;;;;;4984304;28;20061;-81
2022/08/27 10:14:15;;;;;;;7.13;1.15;;;21.30;99.90;;;;;;5009455;28;20125;-82
2022/08/27 10:16:46;;;;;;;6.38;1.25;;;21.30;99.90;;;;;;4985380;28;20562;-80
2022/08/27 10:19:30;;;;;;;7.75;0.80;;;21.50;99.90;;;;;;5010933;28;20384;-79
2022/08/27 10:22:30;;;;;;;3.83;0.77;;;21.70;99.90;;;;;;4981824;28;20137;-82
2022/08/27 10:25:08;;;;;;;5.88;0.80;;;21.80;99.90;;;;;;4980356;28;20070;-82
2022/08/27 10:28:03;;;;;;;8.13;1.35;;;21.90;99.90;;;;;;4979312;28;20045;-79
2022/08/27 10:30:52;;;;;;;3.27;0.80;;;22.10;99.90;;;;;;5012575;28;20038;-83
2022/08/27 10:33:40;;;;;;;8.30;1.00;;;22.20;99.90;;;;;;4983438;28;20285;-82
2022/08/27 10:36:08;;;;;;;6.03;1.10;;;22.30;99.90;;;;;;4983935;28;20039;-83
2022/08/27 10:38:46;;;;;;;5.80;1.13;;;22.40;99.90;;;;;;4981922;28;20991;-82
2022/08/27 10:41:24;;;;;;;3.65;1.20;;;22.40;99.90;;;;;;4985626;28;20081;-78
2022/08/27 10:44:17;;;;;;;6.28;1.60;;;22.50;99.90;;;;;;4980750;28;20035;-81
2022/08/27 10:47:02;;;;;;;4.90;1.23;;;22.40;99.90;;;;;;4985447;28;20098;-82
2022/08/27 10:49:39;;;;;;;7.95;1.42;;;22.40;99.90;;;;;;4997173;28;20453;-81
2022/08/27 10:52:24;;;;;;;5.22;1.23;;;22.30;99.90;;;;;;4980848;28;20053;-80
2022/08/27 10:54:59;;;;;;;6.88;1.85;;;22.20;99.90;;;;;;4980422;28;20390;-79
2022/08/27 10:57:31;;;;;;;5.75;1.40;;;22.10;99.90;;;;;;4984035;28;20049;-82
2022/08/27 11:00:09;;;;;;;3.97;1.23;;;22.00;99.90;;;;;;5011817;28;20045;-81
2022/08/27 11:02:46;;;;;;;6.57;0.82;;;21.90;99.90;;;;;;4984670;28;20046;-80
2022/08/27 11:05:17;;;;;;;5.97;1.20;;;21.80;99.90;;;;;;4996535;28;20042;-79
2022/08/27 11:07:51;;;;;;;3.08;0.60;;;21.80;99.90;;;;;;5010473;28;20772;-81
2022/08/27 11:10:26;;;;;;;5.82;0.90;;;21.80;99.90;;;;;;4990503;28;20046;-81
2022/08/27 11:12:56;;;;;;;5.35;0.80;;;21.80;99.90;;;;;;4970288;28;20125;-82
2022/08/27 11:15:27;;;;;;;5.70;0.90;;;21.80;99.90;;;;;;4981351;28;20142;-82
2022/08/27 11:18:00;;;;;;;5.63;1.42;;;21.80;99.90;;;;;;4982677;28;20055;-82
2022/08/27 11:20:34;;;;;;;5.68;0.65;;;21.80;99.90;;;;;;5009617;28;20049;-78
2022/08/27 11:23:18;;;;;;;7.22;1.67;;;21.70;99.90;;;;;;5008425;28;20051;-80
2022/08/27 11:25:54;;;;;;;5.13;0.93;;;21.70;99.90;;;;;;4985620;28;20094;-79
2022/08/27 11:28:25;;;;;;;4.75;1.00;;;21.80;99.90;;;;;;5008342;28;20054;-82
2022/08/27 11:31:14;;;;;;;5.70;1.33;;;21.80;99.90;;;;;;4997574;28;20042;-82
2022/08/27 11:34:06;;;;;;;8.77;1.85;;;21.90;99.90;;;;;;4981684;28;20043;-82
2022/08/27 11:37:16;;;;;;;10.30;1.35;;;21.90;99.90;;;;;;4981149;28;20394;-83
2022/08/27 11:40:04;;;;;;;6.35;0.98;;;22.10;99.90;;;;;;4983632;28;20039;-80
2022/08/27 11:42:35;;;;;;;6.75;1.20;;;22.10;99.90;;;;;;5005166;28;20057;-81
2022/08/27 11:45:28;;;;;;;4.80;1.27;;;22.10;99.90;;;;;;4962651;28;20052;-82
2022/08/27 11:48:00;;;;;;;9.48;1.00;;;22.30;99.90;;;;;;4992235;28;20058;-81
2022/08/27 11:50:41;;;;;;;4.45;0.75;;;22.30;99.90;;;;;;4980618;28;20046;-80
2022/08/27 11:53:10;;;;;;;6.67;1.03;;;22.20;99.90;;;;;;5004750;28;20046;-79
2022/08/27 11:55:38;;;;;;;7.25;1.08;;;22.60;99.90;;;;;;4980417;28;20105;-82
2022/08/27 11:58:18;;;;;;;5.57;0.73;;;22.80;99.90;;;;;;5009843;28;20048;-81
2022/08/27 12:00:46;;;;;;;3.78;1.17;;;22.90;99.90;;;;;;4980971;28;20049;-80
2022/08/27 12:03:17;;;;;;;4.97;1.10;;;22.90;99.90;;;;;;4986035;28;20082;-76
2022/08/27 12:06:04;;;;;;;5.90;1.00;;;22.90;99.90;;;;;;4979839;28;20057;-79
2022/08/27 12:08:33;;;;;;;5.32;1.10;;;22.90;99.90;;;;;;4980658;28;20097;-79
2022/08/27 12:11:34;;;;;;;6.95;1.35;;;23.10;99.90;;;;;;4983643;28;20076;-80
2022/08/27 12:14:26;;;;;;;5.22;1.27;;;23.30;99.90;;;;;;4985855;28;20045;-80
2022/08/27 12:17:21;;;;;;;4.75;0.75;;;23.30;99.90;;;;;;4986384;28;20046;-80
2022/08/27 12:20:08;;;;;;;3.55;0.60;;;23.50;98.90;;;;;;4984802;28;20042;-78
2022/08/27 12:25:57;;;;;;;5.32;0.73;;;23.80;98.60;;;;;;5013596;28;20061;-77
2022/08/27 12:28:25;;;;;;;4.40;0.70;;;23.50;98.50;;;;;;4990409;28;20042;-80
2022/08/27 12:30:51;;;;;;;4.78;1.17;;;23.20;98.50;;;;;;4990767;28;20730;-79
2022/08/27 12:33:30;;;;;;;4.88;0.88;;;22.90;99.10;;;;;;4985230;28;20133;-79
2022/08/27 12:36:25;;;;;;;5.80;1.20;;;22.60;99.90;;;;;;4997584;28;20038;-80
2022/08/27 12:38:58;;;;;;;6.55;1.42;;;22.50;99.90;;;;;;4980622;28;20058;-78
2022/08/27 12:41:38;;;;;;;5.07;1.55;;;22.50;99.90;;;;;;4988202;28;20046;-79
2022/08/27 12:44:09;;;;;;;4.85;1.02;;;22.70;99.90;;;;;;5014260;28;20089;-80
2022/08/27 12:47:02;;;;;;;6.78;1.00;;;22.90;99.50;;;;;;5014527;28;20078;-80
2022/08/27 12:49:35;;;;;;;6.75;1.20;;;23.00;99.10;;;;;;4985131;28;20104;-80
2022/08/27 12:52:12;;;;;;;6.35;0.95;;;23.10;99.30;;;;;;4985490;28;20074;-80
2022/08/27 12:55:11;;;;;;;4.53;0.77;;;23.10;98.90;;;;;;4985664;28;20518;-80
2022/08/27 12:58:11;;;;;;;4.82;1.00;;;23.00;97.80;;;;;;5014590;28;20113;-80
2022/08/27 13:00:57;;;;;;;3.20;0.98;;;22.90;98.10;;;;;;5013262;28;20046;-79
2022/08/27 13:03:31;;;;;;;4.00;0.55;;;22.70;97.30;;;;;;4985147;28;20046;-81
2022/08/27 13:05:59;;;;;;;4.82;0.70;;;22.70;98.00;;;;;;4984926;28;20125;-81
2022/08/27 13:08:29;;;;;;;8.10;0.68;;;22.70;98.40;;;;;;4986077;28;20062;-80
2022/08/27 13:10:56;;;;;;;3.60;0.47;;;22.80;99.10;;;;;;4999335;28;20073;-82
2022/08/27 13:13:24;;;;;;;5.95;0.60;;;23.20;99.80;;;;;;4984455;28;20035;-81
2022/08/27 13:15:55;;;;;;;3.10;0.82;;;23.50;98.80;;;;;;4991784;28;20054;-80
2022/08/27 13:18:22;;;;;;;9.15;0.68;;;23.90;98.40;;;;;;4983019;28;20061;-80
2022/08/27 13:20:49;;;;;;;4.45;0.50;;;24.10;98.20;;;;;;4990815;28;20093;-81
2022/08/27 13:23:18;;;;;;;3.25;0.57;;;23.80;96.80;;;;;;5011353;28;20074;-78